Time;durP1;ratioP1;P1;durP2;ratioP2;P2;SDS_P1;SDS_P2;PMS_P1;PMS_P2;Temp;Humidity;BMP_temperature;BMP_pressure;BME280_temperature;BME280_humidity;BME280_pressure;Samples;Min_cycle;Max_cycle;Signal;HPM_P1;HPM_P2
2021/04/27 00:00:08;;;;;;;1.43;0.93;;;20.00;44.70;;;;;;4964501;28;20737;-84
2021/04/27 00:02:34;;;;;;;2.03;0.87;;;20.00;44.70;;;;;;4973091;28;20221;-84
2021/04/27 00:05:02;;;;;;;1.30;0.80;;;19.90;44.70;;;;;;4966593;28;20626;-84
2021/04/27 00:07:28;;;;;;;1.10;0.70;;;20.00;44.70;;;;;;4976140;28;20532;-84
2021/04/27 00:09:54;;;;;;;1.00;0.90;;;20.00;44.80;;;;;;4964458;28;20236;-85
2021/04/27 00:12:21;;;;;;;1.90;0.90;;;19.90;44.80;;;;;;4966967;28;20225;-87
2021/04/27 00:14:49;;;;;;;1.33;0.80;;;19.90;44.80;;;;;;4961559;28;20221;-82
2021/04/27 00:17:18;;;;;;;1.30;0.80;;;19.90;44.90;;;;;;4966873;28;20241;-87
2021/04/27 00:19:47;;;;;;;1.37;0.80;;;19.90;44.80;;;;;;4969376;28;20813;-85
2021/04/27 00:22:15;;;;;;;2.00;0.87;;;19.80;44.70;;;;;;4956198;28;20557;-85
2021/04/27 00:24:41;;;;;;;0.90;0.80;;;19.90;44.90;;;;;;4973417;28;20445;-87
2021/04/27 00:27:09;;;;;;;1.20;0.80;;;19.80;44.90;;;;;;4967610;28;20231;-88
2021/04/27 00:29:35;;;;;;;1.17;0.67;;;19.80;44.90;;;;;;4977836;28;20235;-87
2021/04/27 00:32:03;;;;;;;1.40;0.80;;;19.80;44.80;;;;;;4962215;28;20319;-87
2021/04/27 00:34:29;;;;;;;1.53;1.00;;;19.80;44.80;;;;;;4955308;28;20295;-87
2021/04/27 00:36:55;;;;;;;1.30;0.90;;;19.80;44.90;;;;;;4975238;28;20607;-87
2021/04/27 00:39:22;;;;;;;1.00;0.87;;;19.80;44.90;;;;;;4963571;28;20201;-86
2021/04/27 00:41:49;;;;;;;1.27;1.00;;;19.80;44.90;;;;;;4951985;28;20231;-87
2021/04/27 00:44:17;;;;;;;1.50;0.70;;;19.70;44.90;;;;;;4963716;28;20263;-84
2021/04/27 00:46:43;;;;;;;1.03;0.93;;;19.80;44.90;;;;;;4967001;28;21655;-86
2021/04/27 00:49:10;;;;;;;1.10;0.80;;;19.70;44.80;;;;;;4966877;28;20225;-86
2021/04/27 00:51:37;;;;;;;1.43;0.80;;;19.70;44.90;;;;;;4963119;28;20279;-85
2021/04/27 00:54:06;;;;;;;1.60;0.60;;;19.70;44.90;;;;;;4977130;28;20234;-86
2021/04/27 00:56:33;;;;;;;1.10;0.70;;;19.70;44.80;;;;;;4966458;28;20706;-87
2021/04/27 00:59:00;;;;;;;1.03;0.80;;;19.70;44.90;;;;;;4982955;28;20228;-87
2021/04/27 01:01:26;;;;;;;1.50;0.70;;;19.70;44.80;;;;;;4967478;28;20535;-86
2021/04/27 01:03:53;;;;;;;1.67;0.90;;;19.70;44.90;;;;;;4967985;28;20235;-86
2021/04/27 01:06:19;;;;;;;0.70;0.70;;;19.70;45.00;;;;;;4965736;28;20221;-86
2021/04/27 01:08:56;;;;;;;1.40;0.90;;;19.60;44.90;;;;;;4966139;28;20228;-86
2021/04/27 01:11:29;;;;;;;2.20;1.00;;;19.60;44.90;;;;;;4935945;28;20216;-86
2021/04/27 01:14:27;;;;;;;1.60;0.90;;;19.60;44.90;;;;;;4956602;28;20232;-87
2021/04/27 01:17:04;;;;;;;1.73;0.80;;;19.60;44.90;;;;;;4941899;28;22742;-87
2021/04/27 01:19:59;;;;;;;0.97;0.80;;;19.60;44.80;;;;;;4969056;28;20758;-87
2021/04/27 01:22:48;;;;;;;0.80;0.80;;;19.60;45.00;;;;;;4943362;28;20250;-87
2021/04/27 01:25:24;;;;;;;0.63;0.63;;;19.60;45.00;;;;;;4952778;28;20229;-86
2021/04/27 01:27:52;;;;;;;1.67;1.10;;;19.50;44.90;;;;;;4954134;28;21381;-84
2021/04/27 01:30:19;;;;;;;1.20;0.70;;;19.50;44.90;;;;;;4964289;28;20647;-84
2021/04/27 01:32:45;;;;;;;1.87;0.90;;;19.50;44.90;;;;;;4972904;28;20239;-84
2021/04/27 01:35:12;;;;;;;1.43;0.80;;;19.50;44.90;;;;;;4976184;28;20236;-84
2021/04/27 01:37:39;;;;;;;1.60;0.60;;;19.50;44.90;;;;;;4960655;28;20240;-83
2021/04/27 01:40:06;;;;;;;0.60;0.60;;;19.50;44.90;;;;;;4964218;28;20717;-84
2021/04/27 01:42:33;;;;;;;1.00;0.73;;;19.50;45.00;;;;;;4963436;28;20243;-85
2021/04/27 01:45:01;;;;;;;1.07;0.70;;;19.50;45.00;;;;;;4971692;28;20244;-85
2021/04/27 01:47:28;;;;;;;1.40;0.87;;;19.50;45.00;;;;;;4971302;28;20228;-85
2021/04/27 01:49:55;;;;;;;1.63;0.87;;;19.40;45.00;;;;;;4979685;28;20629;-85
2021/04/27 01:52:21;;;;;;;1.00;0.73;;;19.50;45.00;;;;;;4968006;28;20240;-87
2021/04/27 01:54:48;;;;;;;2.10;0.50;;;19.40;44.90;;;;;;4981417;28;20227;-86
2021/04/27 01:57:17;;;;;;;1.60;0.83;;;19.40;45.00;;;;;;4975583;28;20213;-86
2021/04/27 01:59:43;;;;;;;1.40;0.67;;;19.40;45.00;;;;;;4958415;28;21180;-86
2021/04/27 02:02:10;;;;;;;0.87;0.60;;;19.40;45.00;;;;;;4962478;28;20221;-86
2021/04/27 02:04:39;;;;;;;1.50;0.80;;;19.40;45.00;;;;;;4960879;28;20228;-87
2021/04/27 02:07:05;;;;;;;0.77;0.53;;;19.40;45.00;;;;;;4978618;28;20230;-86
2021/04/27 02:09:35;;;;;;;0.77;0.53;;;19.40;45.00;;;;;;4962706;28;20228;-87
2021/04/27 02:12:01;;;;;;;1.53;0.83;;;19.30;44.90;;;;;;4956820;28;20225;-86
2021/04/27 02:14:29;;;;;;;0.80;0.80;;;19.40;45.00;;;;;;4975691;28;20736;-86
2021/04/27 02:17:14;;;;;;;1.30;0.70;;;19.40;45.00;;;;;;4974146;28;20239;-86
2021/04/27 02:19:41;;;;;;;1.70;0.70;;;19.30;45.00;;;;;;4970339;28;20307;-85
2021/04/27 02:22:09;;;;;;;0.87;0.70;;;19.30;45.00;;;;;;4963951;28;22557;-84
2021/04/27 02:24:38;;;;;;;1.13;0.60;;;19.30;45.00;;;;;;4961367;28;20747;-87
2021/04/27 02:27:12;;;;;;;1.00;0.70;;;19.30;44.90;;;;;;4973420;28;20291;-86
2021/04/27 02:29:40;;;;;;;0.80;0.70;;;19.30;44.90;;;;;;4956111;28;20225;-86
2021/04/27 02:32:07;;;;;;;1.63;0.93;;;19.30;45.00;;;;;;4952551;28;20236;-86
2021/04/27 02:34:34;;;;;;;1.63;0.70;;;19.30;44.90;;;;;;4968856;28;20473;-86
2021/04/27 02:37:00;;;;;;;0.73;0.63;;;19.20;45.00;;;;;;4965350;28;20230;-87
2021/04/27 02:39:27;;;;;;;1.70;0.83;;;19.20;45.00;;;;;;4965308;28;20220;-85
2021/04/27 02:41:53;;;;;;;1.07;0.87;;;19.20;45.00;;;;;;4954853;28;20229;-86
2021/04/27 02:44:29;;;;;;;1.03;0.80;;;19.20;45.00;;;;;;4964335;28;20370;-85
2021/04/27 02:46:56;;;;;;;0.70;0.60;;;19.20;45.60;;;;;;4969662;28;20228;-85
2021/04/27 02:49:23;;;;;;;1.60;0.80;;;19.30;45.60;;;;;;4965396;28;20236;-85
2021/04/27 02:51:49;;;;;;;1.00;0.90;;;19.20;45.00;;;;;;4950417;28;20232;-84
2021/04/27 02:54:15;;;;;;;0.90;0.70;;;19.20;45.00;;;;;;4972320;28;20718;-85
2021/04/27 02:56:47;;;;;;;0.70;0.60;;;19.20;45.00;;;;;;4954299;28;21880;-85
2021/04/27 02:59:16;;;;;;;1.00;0.80;;;19.20;45.00;;;;;;4964490;28;20231;-85
2021/04/27 03:01:42;;;;;;;1.80;0.80;;;19.20;45.00;;;;;;4981251;28;20644;-85
2021/04/27 03:04:09;;;;;;;0.70;0.60;;;19.20;45.00;;;;;;4977213;28;20232;-86
2021/04/27 03:06:36;;;;;;;1.20;0.80;;;19.10;45.00;;;;;;4965508;28;20266;-86
2021/04/27 03:09:02;;;;;;;1.30;0.80;;;19.10;45.00;;;;;;4969422;28;20239;-86
2021/04/27 03:11:29;;;;;;;0.80;0.80;;;19.10;45.00;;;;;;4962952;28;20212;-86
2021/04/27 03:13:56;;;;;;;0.90;0.70;;;19.10;45.00;;;;;;4972621;28;20552;-86
2021/04/27 03:16:23;;;;;;;0.80;0.70;;;19.10;45.00;;;;;;4974902;28;20229;-87
2021/04/27 03:18:52;;;;;;;1.00;0.80;;;19.10;45.00;;;;;;4966287;28;20232;-86
2021/04/27 03:21:19;;;;;;;1.10;0.80;;;19.10;45.00;;;;;;4970160;28;20601;-86
2021/04/27 03:23:54;;;;;;;0.67;0.57;;;19.10;44.90;;;;;;4973402;28;20279;-87
2021/04/27 03:26:22;;;;;;;1.53;0.80;;;19.10;45.00;;;;;;4950258;28;20603;-85
2021/04/27 03:28:51;;;;;;;0.93;0.50;;;19.10;45.60;;;;;;4965476;28;20441;-85
2021/04/27 03:31:19;;;;;;;1.00;0.70;;;19.10;45.00;;;;;;4980082;28;20226;-85
2021/04/27 03:33:46;;;;;;;1.37;0.60;;;19.10;45.00;;;;;;4965902;28;20276;-85
2021/04/27 03:36:13;;;;;;;0.97;0.80;;;19.00;44.90;;;;;;4963428;28;20732;-84
2021/04/27 03:38:41;;;;;;;1.03;0.83;;;19.00;45.00;;;;;;4977860;28;20712;-85
2021/04/27 03:41:10;;;;;;;0.70;0.70;;;19.00;45.00;;;;;;4953276;28;20236;-84
2021/04/27 03:43:38;;;;;;;2.23;0.70;;;19.00;45.00;;;;;;4959724;28;20681;-85
2021/04/27 03:46:05;;;;;;;0.90;0.87;;;19.00;44.90;;;;;;4963786;28;20220;-85
2021/04/27 03:48:31;;;;;;;1.10;0.87;;;19.00;45.00;;;;;;4950154;28;20661;-85
2021/04/27 03:50:58;;;;;;;1.00;0.70;;;19.00;45.60;;;;;;4981234;28;20237;-85
2021/04/27 03:53:25;;;;;;;1.13;0.87;;;19.00;45.00;;;;;;4971079;28;20621;-85
2021/04/27 03:55:54;;;;;;;0.83;0.77;;;19.00;45.00;;;;;;4966844;28;20216;-86
2021/04/27 03:58:22;;;;;;;1.00;0.90;;;19.00;45.00;;;;;;4958849;28;20732;-86
2021/04/27 04:00:48;;;;;;;3.10;0.93;;;18.90;44.90;;;;;;4971155;28;20224;-85
2021/04/27 04:03:14;;;;;;;1.53;0.77;;;19.00;45.00;;;;;;4964839;28;20698;-86
2021/04/27 04:05:41;;;;;;;1.00;0.87;;;18.90;45.00;;;;;;4950674;28;20233;-85
2021/04/27 04:08:14;;;;;;;1.27;0.80;;;19.00;45.00;;;;;;4940450;28;20290;-86
2021/04/27 04:10:46;;;;;;;0.87;0.77;;;19.00;45.00;;;;;;4951278;28;20472;-87
2021/04/27 04:13:13;;;;;;;1.13;0.70;;;18.90;45.60;;;;;;4932211;28;20698;-87
2021/04/27 04:16:03;;;;;;;1.00;0.80;;;19.00;45.00;;;;;;4977099;28;20239;-86
2021/04/27 04:18:30;;;;;;;1.57;0.83;;;18.90;44.90;;;;;;4949749;28;20636;-86
2021/04/27 04:20:56;;;;;;;0.93;0.83;;;18.90;45.00;;;;;;4953897;28;20731;-87
2021/04/27 04:23:23;;;;;;;1.13;0.80;;;18.90;45.60;;;;;;4975614;28;20228;-86
2021/04/27 04:25:49;;;;;;;1.30;0.80;;;18.90;45.00;;;;;;4969285;28;20713;-86
2021/04/27 04:28:16;;;;;;;1.60;0.70;;;18.90;45.00;;;;;;4966191;28;20224;-86
2021/04/27 04:30:44;;;;;;;0.50;0.50;;;18.90;45.00;;;;;;4978702;28;20228;-86
2021/04/27 04:33:10;;;;;;;0.97;0.87;;;18.90;45.00;;;;;;4956402;28;20227;-85
2021/04/27 04:35:37;;;;;;;0.87;0.67;;;18.90;45.00;;;;;;4966841;28;20227;-85
2021/04/27 04:38:03;;;;;;;1.30;0.90;;;18.90;45.00;;;;;;4967055;28;20241;-85
2021/04/27 04:40:32;;;;;;;1.37;0.90;;;18.80;44.90;;;;;;4961218;28;20333;-85
2021/04/27 04:42:59;;;;;;;1.43;1.00;;;18.80;44.90;;;;;;4960640;28;20691;-85
2021/04/27 04:45:28;;;;;;;0.80;0.80;;;18.80;44.90;;;;;;4954939;28;20247;-85
2021/04/27 04:47:55;;;;;;;0.90;0.90;;;18.80;44.90;;;;;;4973532;28;20744;-86
2021/04/27 04:50:23;;;;;;;1.13;0.90;;;18.80;44.90;;;;;;4972925;28;20598;-86
2021/04/27 04:52:50;;;;;;;0.90;0.90;;;18.80;44.90;;;;;;4954201;28;20233;-88
2021/04/27 04:55:21;;;;;;;0.87;0.80;;;18.80;44.90;;;;;;4967885;28;20225;-85
2021/04/27 04:57:48;;;;;;;0.80;0.80;;;18.70;45.60;;;;;;4970449;28;20236;-85
2021/04/27 05:00:18;;;;;;;0.83;0.80;;;18.80;45.00;;;;;;4969184;28;20301;-84
2021/04/27 05:02:44;;;;;;;1.27;1.00;;;18.80;45.00;;;;;;4963232;28;20604;-85
2021/04/27 05:05:14;;;;;;;2.40;0.80;;;18.80;45.00;;;;;;4967414;28;20629;-85
2021/04/27 05:07:45;;;;;;;1.43;0.90;;;18.80;45.00;;;;;;4951570;28;20411;-86
2021/04/27 05:10:16;;;;;;;0.80;0.70;;;18.70;45.00;;;;;;4960667;28;20220;-85
2021/04/27 05:12:43;;;;;;;1.57;0.80;;;18.80;45.10;;;;;;4968626;28;20221;-86
2021/04/27 05:15:10;;;;;;;2.37;0.90;;;18.70;45.00;;;;;;4961001;28;20234;-85
2021/04/27 05:17:37;;;;;;;1.03;0.90;;;18.80;45.10;;;;;;4971561;28;20237;-86
2021/04/27 05:20:07;;;;;;;0.83;0.70;;;18.80;45.10;;;;;;4978208;28;20294;-85
2021/04/27 05:22:34;;;;;;;1.37;0.80;;;18.70;45.10;;;;;;4973290;28;20323;-86
2021/04/27 05:25:03;;;;;;;1.93;0.80;;;18.70;45.40;;;;;;4968783;28;20252;-86
2021/04/27 05:27:30;;;;;;;1.40;0.80;;;18.80;45.10;;;;;;4971031;28;20225;-87
2021/04/27 05:29:58;;;;;;;0.80;0.70;;;18.80;45.10;;;;;;4968676;28;20802;-86
2021/04/27 05:32:25;;;;;;;1.27;0.80;;;18.70;45.10;;;;;;4970296;28;20232;-86
2021/04/27 05:34:54;;;;;;;1.87;0.80;;;18.70;45.10;;;;;;4967414;28;20243;-86
2021/04/27 05:37:20;;;;;;;1.00;0.90;;;18.80;45.10;;;;;;4978429;28;20254;-86
2021/04/27 05:39:46;;;;;;;1.40;0.87;;;18.70;45.10;;;;;;4958194;28;20320;-86
2021/04/27 05:42:13;;;;;;;2.77;0.80;;;18.70;45.20;;;;;;4968400;28;20411;-86
2021/04/27 05:44:39;;;;;;;2.67;1.00;;;18.70;45.10;;;;;;4970332;28;20288;-86
2021/04/27 05:47:07;;;;;;;1.53;0.67;;;18.70;45.00;;;;;;4943287;28;20737;-87
2021/04/27 05:49:34;;;;;;;2.80;0.93;;;18.70;45.10;;;;;;4975737;28;20284;-86
2021/04/27 05:52:03;;;;;;;1.00;0.83;;;18.70;45.10;;;;;;4967830;28;20280;-86
2021/04/27 05:54:33;;;;;;;1.60;0.83;;;18.70;45.10;;;;;;4969441;28;20480;-86
2021/04/27 05:57:03;;;;;;;1.13;0.90;;;18.70;45.10;;;;;;4934258;28;20237;-86
2021/04/27 05:59:31;;;;;;;1.13;0.90;;;18.70;45.10;;;;;;4958058;28;20851;-86
2021/04/27 06:02:00;;;;;;;1.00;0.90;;;18.70;45.20;;;;;;4981527;28;20230;-86
2021/04/27 06:04:29;;;;;;;0.97;0.90;;;18.60;45.70;;;;;;4968457;28;20256;-86
2021/04/27 06:06:58;;;;;;;1.40;1.30;;;18.70;45.20;;;;;;4947394;28;20236;-87
2021/04/27 06:09:25;;;;;;;1.07;0.87;;;18.70;45.10;;;;;;4963163;28;20588;-86
2021/04/27 06:11:56;;;;;;;2.30;0.97;;;18.70;45.20;;;;;;4965874;28;20650;-86
2021/04/27 06:14:23;;;;;;;1.27;0.93;;;18.70;45.20;;;;;;4946893;28;20254;-86
2021/04/27 06:16:51;;;;;;;1.37;0.80;;;18.70;45.20;;;;;;4966467;28;20255;-84
2021/04/27 06:19:18;;;;;;;1.33;0.80;;;18.70;45.20;;;;;;4977869;28;20601;-87
2021/04/27 06:21:47;;;;;;;1.53;0.83;;;18.70;45.30;;;;;;4963501;28;20831;-84
2021/04/27 06:24:17;;;;;;;1.43;1.17;;;18.70;45.20;;;;;;4947668;28;20228;-87
2021/04/27 06:27:02;;;;;;;1.13;0.97;;;18.70;45.20;;;;;;4931186;28;20230;-84
2021/04/27 06:29:48;;;;;;;1.63;0.80;;;18.70;45.20;;;;;;4967630;28;20247;-86
2021/04/27 06:32:17;;;;;;;0.97;0.87;;;18.60;45.20;;;;;;4965934;28;21286;-85
2021/04/27 06:34:44;;;;;;;2.97;0.80;;;18.70;45.30;;;;;;4950490;28;20418;-85
2021/04/27 06:37:15;;;;;;;1.33;1.00;;;18.70;45.30;;;;;;4962293;28;20749;-86
2021/04/27 06:39:52;;;;;;;3.37;1.03;;;18.70;45.20;;;;;;4950455;28;20228;-85
2021/04/27 06:43:02;;;;;;;1.23;0.90;;;18.70;45.30;;;;;;4958232;28;20231;-85
2021/04/27 06:45:35;;;;;;;1.20;1.00;;;18.70;45.30;;;;;;4946368;28;20707;-85
2021/04/27 06:48:04;;;;;;;1.60;1.30;;;18.70;45.20;;;;;;4946661;28;20241;-85
2021/04/27 06:50:31;;;;;;;1.70;1.07;;;18.60;45.30;;;;;;4951952;28;20233;-81
2021/04/27 06:53:27;;;;;;;1.20;1.00;;;18.70;45.30;;;;;;4956555;28;20238;-83
2021/04/27 06:55:54;;;;;;;1.93;1.17;;;18.70;45.30;;;;;;4944810;28;20275;-87
2021/04/27 06:58:20;;;;;;;1.37;0.87;;;18.70;45.20;;;;;;4963361;28;20236;-85
2021/04/27 07:00:46;;;;;;;1.93;1.33;;;18.60;45.20;;;;;;4974833;28;20244;-88
2021/04/27 07:03:15;;;;;;;0.90;0.80;;;18.70;45.10;;;;;;4958982;28;20221;-86
2021/04/27 07:05:45;;;;;;;1.27;0.97;;;18.70;45.00;;;;;;4987710;28;20229;-87
2021/04/27 07:08:12;;;;;;;1.30;1.00;;;18.70;45.00;;;;;;4960350;28;20320;-85
2021/04/27 07:10:38;;;;;;;1.73;1.00;;;18.80;44.90;;;;;;4979936;28;20228;-84
2021/04/27 07:13:05;;;;;;;1.20;0.93;;;18.70;44.80;;;;;;4943205;28;20225;-84
2021/04/27 07:15:32;;;;;;;2.17;1.13;;;18.70;44.80;;;;;;4965101;28;20309;-83
2021/04/27 07:17:59;;;;;;;4.10;1.30;;;18.70;44.80;;;;;;4969718;28;20234;-83
2021/04/27 07:20:28;;;;;;;3.57;1.47;;;18.70;44.80;;;;;;4971529;28;20292;-85
2021/04/27 07:22:56;;;;;;;4.10;1.50;;;18.70;44.50;;;;;;4969479;28;20736;-86
2021/04/27 07:25:23;;;;;;;5.73;1.40;;;18.70;44.30;;;;;;4957765;28;20226;-86
2021/04/27 07:27:51;;;;;;;2.33;1.47;;;18.70;44.20;;;;;;4958948;28;20711;-85
2021/04/27 07:30:22;;;;;;;3.07;1.43;;;18.70;44.30;;;;;;4960844;28;20318;-86
2021/04/27 07:32:49;;;;;;;2.73;1.43;;;18.70;44.20;;;;;;4966877;28;20312;-84
2021/04/27 07:35:16;;;;;;;5.00;1.57;;;18.70;43.90;;;;;;4963194;28;20245;-84
2021/04/27 07:37:43;;;;;;;3.27;1.50;;;18.70;44.10;;;;;;4966630;28;20228;-84
2021/04/27 07:40:11;;;;;;;4.30;1.57;;;18.70;44.10;;;;;;4961131;28;20225;-89
2021/04/27 07:42:40;;;;;;;3.53;1.63;;;18.70;43.80;;;;;;4979279;28;20739;-87
2021/04/27 07:45:16;;;;;;;2.10;1.70;;;18.70;43.90;;;;;;4964944;28;20453;-86
2021/04/27 07:47:43;;;;;;;2.07;1.77;;;18.70;43.70;;;;;;4973262;28;20265;-87
2021/04/27 07:50:11;;;;;;;2.73;1.97;;;18.70;43.60;;;;;;4954665;28;20247;-86
2021/04/27 07:52:39;;;;;;;2.87;1.50;;;18.70;43.70;;;;;;4970220;28;20228;-85
2021/04/27 07:55:07;;;;;;;3.80;1.67;;;18.70;43.70;;;;;;4971926;28;20231;-87
2021/04/27 07:57:36;;;;;;;3.13;2.03;;;18.70;43.70;;;;;;4986549;28;21421;-86
2021/04/27 08:00:04;;;;;;;4.00;1.63;;;18.70;43.70;;;;;;4980678;28;20275;-87
2021/04/27 08:02:36;;;;;;;2.87;1.97;;;18.70;43.80;;;;;;4987629;28;20263;-86
2021/04/27 08:05:05;;;;;;;2.43;1.63;;;18.70;43.90;;;;;;4972578;28;20239;-87
2021/04/27 08:07:32;;;;;;;1.97;1.57;;;18.80;44.00;;;;;;4940518;28;20326;-87
2021/04/27 08:09:58;;;;;;;2.43;1.50;;;18.70;44.00;;;;;;4956059;28;20256;-84
2021/04/27 08:12:25;;;;;;;2.77;1.70;;;18.80;44.00;;;;;;4949198;28;20260;-86
2021/04/27 08:14:52;;;;;;;2.37;1.33;;;18.70;44.10;;;;;;4987132;28;20219;-86
2021/04/27 08:17:22;;;;;;;4.43;1.50;;;18.80;44.10;;;;;;4986218;28;20228;-85
2021/04/27 08:20:00;;;;;;;2.40;1.40;;;18.80;44.10;;;;;;4910191;28;20743;-85
2021/04/27 08:22:35;;;;;;;2.67;1.87;;;18.90;44.30;;;;;;4940991;28;20233;-86
2021/04/27 08:25:18;;;;;;;1.67;1.43;;;18.80;44.20;;;;;;4988622;28;20671;-87
2021/04/27 08:27:48;;;;;;;6.53;2.00;;;18.90;44.20;;;;;;4955538;28;21519;-86
2021/04/27 08:30:17;;;;;;;18.47;4.17;;;18.80;44.50;;;;;;4982068;28;20224;-84
2021/04/27 08:33:00;;;;;;;15.73;3.40;;;18.90;45.90;;;;;;4958261;28;20235;-84
2021/04/27 08:35:27;;;;;;;11.50;3.33;;;19.00;46.90;;;;;;4972826;28;21574;-83
2021/04/27 08:37:53;;;;;;;12.37;3.90;;;19.10;47.00;;;;;;4977181;28;20227;-83
2021/04/27 08:40:20;;;;;;;12.97;3.53;;;19.10;46.70;;;;;;4988521;28;20227;-86
2021/04/27 08:42:50;;;;;;;13.23;3.10;;;19.20;46.60;;;;;;4968169;28;20227;-83
2021/04/27 08:45:17;;;;;;;14.20;3.77;;;19.30;47.20;;;;;;5287378;23;21713;-82
2021/04/27 08:47:44;;;;;;;19.90;3.60;;;19.40;46.30;;;;;;4999647;28;20224;-83
2021/04/27 08:50:13;;;;;;;12.97;3.67;;;19.50;46.60;;;;;;5004902;28;20739;-82
2021/04/27 08:52:40;;;;;;;11.43;3.20;;;19.50;45.80;;;;;;5001217;28;20238;-80
2021/04/27 08:55:08;;;;;;;10.43;3.00;;;19.60;45.90;;;;;;5006313;28;20260;-81
2021/04/27 08:57:35;;;;;;;7.47;2.80;;;19.60;45.20;;;;;;4988869;28;20626;-81
2021/04/27 09:00:11;;;;;;;7.97;2.53;;;19.70;44.80;;;;;;5005188;28;20224;-81
2021/04/27 09:02:44;;;;;;;11.30;2.80;;;19.70;44.80;;;;;;4988738;28;20322;-81
2021/04/27 09:05:24;;;;;;;8.27;2.43;;;19.60;44.70;;;;;;5000411;28;20224;-82
2021/04/27 09:07:55;;;;;;;13.17;2.83;;;19.60;44.50;;;;;;4992159;28;20234;-81
2021/04/27 09:10:28;;;;;;;13.33;3.30;;;19.70;44.40;;;;;;5000285;28;20228;-81
2021/04/27 09:13:01;;;;;;;12.43;3.40;;;19.70;44.30;;;;;;4988921;28;20243;-80
2021/04/27 09:15:36;;;;;;;11.83;2.70;;;19.70;44.20;;;;;;4995968;28;20255;-80
2021/04/27 09:18:29;;;;;;;8.73;2.83;;;19.70;44.30;;;;;;5001400;28;20246;-81
2021/04/27 09:21:19;;;;;;;10.77;3.30;;;19.80;44.40;;;;;;4985654;28;22012;-80
2021/04/27 09:23:46;;;;;;;12.27;2.93;;;19.80;44.40;;;;;;4991723;28;21836;-83
2021/04/27 09:26:20;;;;;;;8.33;2.53;;;19.80;44.80;;;;;;5009224;28;20223;-81
2021/04/27 09:28:54;;;;;;;9.10;2.20;;;19.90;44.90;;;;;;5000114;28;20235;-84
2021/04/27 09:31:34;;;;;;;7.27;2.37;;;20.00;44.90;;;;;;4997329;28;20599;-82
2021/04/27 09:34:25;;;;;;;4.77;1.90;;;20.10;44.70;;;;;;5007050;28;20231;-83
2021/04/27 09:37:01;;;;;;;8.40;2.40;;;20.10;44.40;;;;;;4996102;28;20234;-85
2021/04/27 09:39:43;;;;;;;7.10;2.60;;;20.20;44.30;;;;;;4990554;28;20234;-81
2021/04/27 09:42:16;;;;;;;7.70;1.90;;;20.20;44.20;;;;;;4996056;28;20238;-84
2021/04/27 09:44:50;;;;;;;4.20;2.00;;;20.30;43.80;;;;;;5004795;28;20239;-83
2021/04/27 09:47:21;;;;;;;3.67;1.80;;;20.30;43.80;;;;;;4997636;28;20226;-82
2021/04/27 09:49:56;;;;;;;7.43;1.90;;;20.40;43.80;;;;;;5005063;28;20289;-82
2021/04/27 09:52:27;;;;;;;3.30;1.83;;;20.50;43.50;;;;;;5001566;28;20296;-84
2021/04/27 09:55:02;;;;;;;5.27;2.37;;;20.50;42.80;;;;;;5019144;28;20221;-88
2021/04/27 09:57:31;;;;;;;4.60;2.40;;;20.50;42.70;;;;;;5010476;28;20233;-85
2021/04/27 10:00:31;;;;;;;4.63;2.23;;;20.50;42.90;;;;;;4990758;28;20227;-86
2021/04/27 10:03:01;;;;;;;7.07;2.03;;;20.50;42.80;;;;;;4976149;28;20259;-88
2021/04/27 10:05:27;;;;;;;4.07;1.90;;;20.40;43.50;;;;;;5005094;28;20233;-82
2021/04/27 10:07:57;;;;;;;3.23;1.90;;;20.50;45.40;;;;;;5002437;28;20222;-83
2021/04/27 10:10:28;;;;;;;3.30;2.00;;;20.50;46.50;;;;;;5022439;28;20268;-83
2021/04/27 10:12:57;;;;;;;4.20;2.20;;;20.50;46.60;;;;;;5011233;28;20235;-87
2021/04/27 10:15:25;;;;;;;3.57;2.00;;;20.40;46.10;;;;;;5020517;28;20731;-87
2021/04/27 10:17:52;;;;;;;3.60;1.80;;;20.40;46.10;;;;;;5021314;28;20625;-86
2021/04/27 10:20:18;;;;;;;3.77;2.10;;;20.40;45.90;;;;;;5025172;28;20234;-86
2021/04/27 10:22:47;;;;;;;2.03;1.70;;;20.40;46.10;;;;;;5008747;28;21245;-86
2021/04/27 10:25:23;;;;;;;3.57;2.10;;;20.50;46.50;;;;;;5033290;28;20604;-86
2021/04/27 10:27:59;;;;;;;2.83;1.80;;;20.40;46.50;;;;;;5021958;28;20229;-86
2021/04/27 10:30:32;;;;;;;2.90;2.10;;;20.40;46.50;;;;;;5024850;28;20245;-87
2021/04/27 10:33:01;;;;;;;2.87;1.50;;;20.40;46.60;;;;;;5025164;28;20699;-85
2021/04/27 10:35:33;;;;;;;3.20;1.50;;;20.40;46.70;;;;;;5021621;28;20235;-86
2021/04/27 10:38:11;;;;;;;3.20;1.60;;;20.40;46.60;;;;;;5024424;28;20309;-86
2021/04/27 10:40:40;;;;;;;1.57;1.33;;;20.40;46.60;;;;;;5007795;28;20569;-85
2021/04/27 10:43:25;;;;;;;3.67;1.53;;;20.40;46.20;;;;;;5028723;28;20574;-85
2021/04/27 10:46:00;;;;;;;2.83;1.67;;;20.50;46.20;;;;;;5025435;28;20419;-85
2021/04/27 10:48:38;;;;;;;3.00;1.70;;;20.40;46.30;;;;;;5005599;28;20210;-85
2021/04/27 10:51:21;;;;;;;2.67;1.60;;;20.40;46.20;;;;;;5003991;28;20726;-82
2021/04/27 10:54:15;;;;;;;2.77;1.57;;;20.40;47.20;;;;;;5009599;28;20235;-82
2021/04/27 10:57:00;;;;;;;2.43;1.60;;;20.50;47.00;;;;;;5025585;28;20708;-81
2021/04/27 10:59:27;;;;;;;4.47;1.70;;;20.60;46.90;;;;;;5000511;28;20514;-83
2021/04/27 11:02:11;;;;;;;1.57;1.47;;;20.70;46.90;;;;;;5024951;28;20219;-83
2021/04/27 11:04:49;;;;;;;1.67;1.43;;;20.70;46.80;;;;;;5023293;28;20598;-82
2021/04/27 11:07:20;;;;;;;2.07;1.20;;;20.80;47.20;;;;;;5015209;28;21314;-82
2021/04/27 11:09:58;;;;;;;2.77;1.70;;;20.80;47.30;;;;;;5000013;28;20230;-82
2021/04/27 11:12:59;;;;;;;1.93;1.60;;;20.80;47.10;;;;;;5001533;28;20257;-84
2021/04/27 11:15:30;;;;;;;4.87;1.50;;;20.90;47.30;;;;;;4990912;28;20683;-85
2021/04/27 11:18:19;;;;;;;3.37;1.47;;;20.90;47.90;;;;;;5024610;28;20325;-86
2021/04/27 11:20:54;;;;;;;1.40;1.30;;;21.00;47.00;;;;;;5017476;28;20533;-85
2021/04/27 11:23:43;;;;;;;3.10;1.90;;;21.00;47.40;;;;;;5010750;28;21507;-83
2021/04/27 11:26:31;;;;;;;1.70;1.60;;;21.00;47.10;;;;;;5023761;28;20227;-83
2021/04/27 11:29:04;;;;;;;1.70;1.50;;;21.00;46.70;;;;;;5010860;28;20314;-84
2021/04/27 11:31:55;;;;;;;2.30;1.57;;;21.10;46.90;;;;;;5002273;28;20258;-88
2021/04/27 11:34:23;;;;;;;6.37;1.70;;;21.10;47.10;;;;;;5014987;28;20222;-84
2021/04/27 11:36:50;;;;;;;1.47;1.33;;;21.10;47.60;;;;;;5027528;28;20219;-85
2021/04/27 11:39:19;;;;;;;2.03;1.60;;;21.20;47.40;;;;;;5015886;28;21527;-84
2021/04/27 11:41:48;;;;;;;1.77;1.50;;;21.20;47.10;;;;;;5007845;28;20219;-85
2021/04/27 11:44:16;;;;;;;5.73;1.50;;;21.20;47.30;;;;;;5013286;28;21260;-84
2021/04/27 11:47:14;;;;;;;1.30;1.20;;;21.30;48.70;;;;;;5024634;28;20647;-85
2021/04/27 11:49:44;;;;;;;1.93;1.40;;;21.30;47.50;;;;;;4993821;28;20258;-86
2021/04/27 11:52:11;;;;;;;6.50;1.50;;;21.30;47.20;;;;;;5022714;28;20229;-80
2021/04/27 11:54:37;;;;;;;1.63;1.43;;;21.40;47.50;;;;;;5022724;28;20234;-83
2021/04/27 11:57:12;;;;;;;3.03;1.13;;;21.50;47.40;;;;;;5024775;28;20250;-81
2021/04/27 11:59:38;;;;;;;2.33;1.30;;;21.60;47.20;;;;;;5022011;28;20668;-84
2021/04/27 12:02:04;;;;;;;6.30;1.50;;;21.60;46.70;;;;;;5008157;28;20222;-83
2021/04/27 12:04:31;;;;;;;2.17;1.37;;;21.70;47.10;;;;;;5024414;28;20222;-83
2021/04/27 12:07:01;;;;;;;10.13;1.83;;;21.70;46.60;;;;;;5031896;28;20242;-89
2021/04/27 12:09:42;;;;;;;3.07;1.60;;;21.80;47.40;;;;;;5014395;28;20227;-85
2021/04/27 12:12:10;;;;;;;4.10;1.60;;;21.90;47.90;;;;;;5025619;28;20245;-81
2021/04/27 12:14:37;;;;;;;6.40;1.67;;;22.00;47.20;;;;;;5030198;28;20753;-81
2021/04/27 12:17:04;;;;;;;2.30;1.63;;;22.00;47.10;;;;;;5025925;28;20245;-84
2021/04/27 12:19:31;;;;;;;3.87;1.40;;;22.00;47.60;;;;;;5024915;28;20229;-83
2021/04/27 12:22:05;;;;;;;2.83;1.20;;;22.00;47.50;;;;;;5023339;28;20230;-84
2021/04/27 12:24:39;;;;;;;5.07;1.07;;;22.10;47.70;;;;;;5032061;28;20222;-81
2021/04/27 12:27:11;;;;;;;1.97;1.80;;;22.10;47.80;;;;;;5025939;28;20235;-85
2021/04/27 12:30:07;;;;;;;1.43;1.10;;;22.20;47.90;;;;;;4998355;28;20305;-83
2021/04/27 12:32:36;;;;;;;1.43;1.33;;;22.20;46.80;;;;;;4973221;28;20420;-84
2021/04/27 12:35:21;;;;;;;1.80;1.23;;;22.10;46.90;;;;;;5030382;28;20454;-83
2021/04/27 12:43:11;;;;;;;2.80;1.40;;;22.00;46.60;;;;;;5023291;28;20222;-83
2021/04/27 12:45:51;;;;;;;1.93;1.40;;;22.00;46.60;;;;;;5026568;28;20222;-82
2021/04/27 12:48:20;;;;;;;2.70;1.67;;;22.00;46.80;;;;;;5025128;28;20233;-83
2021/04/27 12:50:52;;;;;;;2.23;1.40;;;22.00;46.80;;;;;;5025521;28;20223;-83
2021/04/27 12:53:20;;;;;;;2.37;1.50;;;21.90;46.90;;;;;;5021208;28;21475;-83
2021/04/27 12:55:51;;;;;;;1.73;1.10;;;22.00;46.90;;;;;;5022499;28;20406;-82
2021/04/27 12:58:27;;;;;;;1.53;1.20;;;22.00;47.70;;;;;;5021344;28;21534;-83
2021/04/27 13:00:59;;;;;;;2.00;1.27;;;21.90;46.90;;;;;;5022443;28;20223;-83
2021/04/27 13:03:29;;;;;;;1.40;1.23;;;22.00;47.30;;;;;;5027839;28;20230;-86
2021/04/27 13:05:56;;;;;;;1.57;1.40;;;21.90;47.10;;;;;;5025019;28;20231;-81
2021/04/27 13:08:27;;;;;;;2.60;1.30;;;22.00;48.60;;;;;;5024634;28;20305;-81